createdAt,value
2023-05-05T00:00:55.090Z,12.51
2023-05-05T00:01:56.619Z,12.47
2023-05-05T00:02:58.605Z,12.64
2023-05-05T00:04:00.333Z,12.69
2023-05-05T00:05:02.045Z,12.67
2023-05-05T00:06:04.308Z,12.70
2023-05-05T00:07:05.826Z,12.71
2023-05-05T00:08:07.901Z,12.77
2023-05-05T00:09:09.405Z,12.78
2023-05-05T00:10:10.870Z,12.76
2023-05-05T00:11:14.483Z,12.79
2023-05-05T00:12:16.088Z,12.76
2023-05-05T00:13:18.503Z,12.76
2023-05-05T00:14:20.049Z,12.80
2023-05-05T00:15:21.498Z,12.78
2023-05-05T00:16:23.347Z,12.75
2023-05-05T00:17:24.989Z,12.74
2023-05-05T00:18:26.695Z,12.71
2023-05-05T00:19:28.187Z,12.69
2023-05-05T00:20:29.629Z,12.68
2023-05-05T00:21:31.149Z,12.65
2023-05-05T00:22:32.589Z,12.64
2023-05-05T00:23:34.164Z,12.64
2023-05-05T00:24:35.923Z,12.67
2023-05-05T00:25:37.592Z,12.64
2023-05-05T00:26:39.073Z,12.64
2023-05-05T00:27:41.016Z,12.66
2023-05-05T00:28:42.855Z,12.68
2023-05-05T00:29:44.884Z,12.66
2023-05-05T00:30:46.576Z,12.65
2023-05-05T00:31:51.722Z,12.62
2023-05-05T00:32:55.027Z,12.59
2023-05-05T00:33:56.690Z,12.61
2023-05-05T00:34:58.319Z,12.62
2023-05-05T00:35:59.945Z,12.61
2023-05-05T00:37:01.621Z,12.58
2023-05-05T00:38:04.974Z,12.61
2023-05-05T00:39:06.455Z,12.61
2023-05-05T00:40:09.251Z,12.68
2023-05-05T00:41:11.063Z,12.69
2023-05-05T00:42:12.578Z,12.72
2023-05-05T00:43:14.083Z,12.73
2023-05-05T00:44:15.780Z,12.80
2023-05-05T00:45:18.793Z,12.82
2023-05-05T00:46:27.469Z,12.90
2023-05-05T00:47:29.265Z,13.04
2023-05-05T00:48:31.658Z,13.05
2023-05-05T00:49:34.736Z,13.09
2023-05-05T00:50:37.298Z,13.18
2023-05-05T00:51:38.837Z,13.17
2023-05-05T00:52:40.598Z,13.23
2023-05-05T00:53:44.920Z,13.16
2023-05-05T00:54:47.325Z,13.15
2023-05-05T00:55:49.608Z,13.22
2023-05-05T00:56:51.475Z,13.15
2023-05-05T00:57:53.361Z,13.17
2023-05-05T00:58:55.212Z,13.15
2023-05-05T00:59:58.749Z,13.12
2023-05-05T01:01:00.651Z,13.09
2023-05-05T01:02:02.332Z,13.00
2023-05-05T01:03:05.288Z,12.97
2023-05-05T01:04:07.244Z,12.96
2023-05-05T01:05:10.128Z,12.95
2023-05-05T01:06:15.228Z,12.93
2023-05-05T01:07:34.068Z,12.91
2023-05-05T01:08:50.518Z,12.79
2023-05-05T01:10:18.103Z,12.75
2023-05-05T01:11:32.653Z,12.69
2023-05-05T01:12:46.419Z,12.67
2023-05-05T01:14:10.227Z,12.66
2023-05-05T01:15:31.749Z,12.58
2023-05-05T01:16:34.828Z,12.55
2023-05-05T01:17:50.629Z,12.50
2023-05-05T01:19:20.125Z,12.48
2023-05-05T01:20:31.592Z,12.44
2023-05-05T01:21:40.423Z,12.44
2023-05-05T01:22:53.365Z,12.45
2023-05-05T01:24:48.641Z,12.53
2023-05-05T01:26:05.464Z,12.56
2023-05-05T01:27:31.779Z,12.54
2023-05-05T01:29:02.931Z,12.71
2023-05-05T01:30:39.239Z,12.82
2023-05-05T01:31:53.916Z,12.89
2023-05-05T01:33:00.936Z,12.94
2023-05-05T01:34:08.139Z,12.88
2023-05-05T01:35:13.809Z,12.92
2023-05-05T01:36:26.351Z,12.94
2023-05-05T01:37:45.456Z,12.90
2023-05-05T01:38:47.884Z,12.86
2023-05-05T01:39:55.567Z,12.84
2023-05-05T01:41:18.204Z,12.73
2023-05-05T01:42:21.160Z,12.68
2023-05-05T01:43:23.304Z,12.59
2023-05-05T01:44:25.457Z,12.53
2023-05-05T01:45:32.244Z,12.46
2023-05-05T01:46:36.148Z,12.36
2023-05-05T01:47:40.257Z,12.25
2023-05-05T01:48:44.224Z,12.15
2023-05-05T01:49:47.723Z,11.99
2023-05-05T01:50:50.317Z,11.82
2023-05-05T01:51:52.420Z,11.70
2023-05-05T01:52:55.365Z,11.61
2023-05-05T01:53:59.764Z,11.50
2023-05-05T01:55:02.966Z,11.45
2023-05-05T01:56:05.631Z,11.38
2023-05-05T01:57:08.572Z,11.34
2023-05-05T01:58:12.053Z,11.32
2023-05-05T01:59:13.744Z,11.31
2023-05-05T02:00:17.986Z,11.25
2023-05-05T02:01:24.159Z,11.19
2023-05-05T02:02:28.233Z,11.18
2023-05-05T02:03:31.479Z,11.03
2023-05-05T02:04:34.927Z,10.99
2023-05-05T02:05:39.682Z,10.96
2023-05-05T02:06:43.842Z,10.89
2023-05-05T02:07:50.036Z,10.88
2023-05-05T02:08:53.199Z,10.86
2023-05-05T02:09:56.398Z,10.83
2023-05-05T02:10:58.717Z,10.82
2023-05-05T02:12:02.110Z,10.80
2023-05-05T02:13:04.817Z,10.82
2023-05-05T02:14:09.146Z,10.80
2023-05-05T02:15:11.443Z,10.78
2023-05-05T02:16:14.101Z,10.75
2023-05-05T02:17:16.317Z,10.75
2023-05-05T02:18:19.178Z,10.73
2023-05-05T02:19:27.316Z,10.70
2023-05-05T02:20:31.581Z,10.68
2023-05-05T02:21:34.216Z,10.63
2023-05-05T02:22:35.755Z,10.61
2023-05-05T02:23:39.043Z,10.60
2023-05-05T02:24:40.655Z,10.56
2023-05-05T02:25:45.587Z,10.56
2023-05-05T02:26:50.440Z,10.53
2023-05-05T02:27:56.610Z,10.51
2023-05-05T02:29:07.840Z,10.49
2023-05-05T02:30:11.481Z,10.47
2023-05-05T02:31:14.883Z,10.46
2023-05-05T02:32:24.043Z,10.45
2023-05-05T02:33:27.910Z,10.43
2023-05-05T02:34:36.508Z,10.42
2023-05-05T02:35:41.227Z,10.46
2023-05-05T02:36:51.319Z,10.53
2023-05-05T02:38:01.887Z,10.55
2023-05-05T02:39:14.589Z,10.65
2023-05-05T02:40:24.313Z,10.76
2023-05-05T02:41:28.987Z,10.89
2023-05-05T02:42:37.953Z,11.17
2023-05-05T02:43:43.348Z,11.40
2023-05-05T02:44:47.203Z,11.78
2023-05-05T02:45:49.510Z,11.97
2023-05-05T02:46:54.258Z,12.20
2023-05-05T02:47:56.225Z,12.40
2023-05-05T02:48:59.704Z,12.52
2023-05-05T02:50:01.519Z,12.67
2023-05-05T02:51:03.659Z,12.68
2023-05-05T02:52:09.239Z,12.79
2023-05-05T02:53:12.773Z,12.90
2023-05-05T02:54:14.823Z,12.98
2023-05-05T02:55:16.762Z,12.99
2023-05-05T02:56:41.169Z,13.09
2023-05-05T02:58:29.043Z,13.15
2023-05-05T02:59:58.156Z,13.16
2023-05-05T03:01:29.738Z,13.14
2023-05-05T03:02:45.456Z,13.05
2023-05-05T03:03:56.345Z,13.01
2023-05-05T03:05:09.037Z,13.17
2023-05-05T03:06:21.112Z,13.24
2023-05-05T03:07:33.939Z,13.34
2023-05-05T03:08:53.743Z,13.47
2023-05-05T03:10:08.731Z,13.57
2023-05-05T03:11:32.042Z,13.58
2023-05-05T03:12:48.338Z,13.51
2023-05-05T03:14:07.053Z,13.55
2023-05-05T03:15:10.470Z,13.51
2023-05-05T03:16:14.095Z,13.47
2023-05-05T03:17:18.578Z,13.52
2023-05-05T03:18:22.550Z,13.48
2023-05-05T03:19:32.117Z,13.44
2023-05-05T03:20:35.870Z,13.36
2023-05-05T03:21:42.002Z,13.30
2023-05-05T03:22:43.733Z,13.19
2023-05-05T03:23:48.300Z,13.13
2023-05-05T03:24:54.545Z,13.05
2023-05-05T03:25:58.948Z,13.02
2023-05-05T03:27:14.003Z,13.06
2023-05-05T03:28:16.252Z,13.01
2023-05-05T03:29:17.825Z,13.00
2023-05-05T03:30:20.160Z,12.99
2023-05-05T03:31:25.215Z,12.98
2023-05-05T03:32:31.308Z,12.96
2023-05-05T03:33:32.900Z,12.96
2023-05-05T03:34:37.350Z,12.96
2023-05-05T03:35:39.918Z,12.92
2023-05-05T03:36:43.902Z,12.90
2023-05-05T03:37:47.903Z,12.90
2023-05-05T03:38:51.406Z,12.93
2023-05-05T03:39:54.548Z,12.89
2023-05-05T03:40:57.197Z,12.84
2023-05-05T03:42:01.042Z,12.80
2023-05-05T03:43:06.264Z,12.80
2023-05-05T03:44:07.933Z,12.76
2023-05-05T03:45:10.714Z,12.76
2023-05-05T03:46:14.016Z,12.75
2023-05-05T03:47:16.804Z,12.79
2023-05-05T03:48:19.679Z,12.79
2023-05-05T03:49:21.605Z,12.79
2023-05-05T03:50:25.959Z,12.78
2023-05-05T03:51:28.055Z,12.78
2023-05-05T03:52:29.783Z,12.85
2023-05-05T03:53:31.287Z,12.91
2023-05-05T03:54:34.888Z,13.04
2023-05-05T03:55:37.122Z,13.06
2023-05-05T03:56:38.629Z,13.06
2023-05-05T03:57:40.193Z,13.05
2023-05-05T03:58:42.031Z,13.04
2023-05-05T03:59:43.556Z,13.04
2023-05-05T04:00:45.272Z,13.01
2023-05-05T04:01:48.881Z,13.00
2023-05-05T04:02:51.151Z,13.00
2023-05-05T04:03:54.469Z,13.00
2023-05-05T04:04:56.033Z,13.05
2023-05-05T04:05:57.544Z,13.09
2023-05-05T04:06:59.595Z,13.21
2023-05-05T04:08:01.313Z,13.19
2023-05-05T04:09:03.322Z,13.28
2023-05-05T04:10:05.662Z,13.27
2023-05-05T04:11:07.923Z,13.33
2023-05-05T04:12:13.649Z,13.41
2023-05-05T04:13:15.623Z,13.42
2023-05-05T04:14:17.162Z,13.46
2023-05-05T04:15:19.111Z,13.75
2023-05-05T04:16:21.035Z,13.84
2023-05-05T04:17:22.669Z,13.88
2023-05-05T04:18:24.303Z,13.95
2023-05-05T04:19:26.037Z,14.07
2023-05-05T04:20:27.526Z,14.16
2023-05-05T04:21:31.529Z,14.30
2023-05-05T04:22:33.311Z,14.22
2023-05-05T04:23:34.962Z,14.20
2023-05-05T04:24:37.231Z,14.22
2023-05-05T04:25:39.307Z,14.23
2023-05-05T04:26:41.464Z,14.32
2023-05-05T04:27:43.026Z,14.34
2023-05-05T04:28:47.317Z,14.26
2023-05-05T04:29:50.206Z,14.35
2023-05-05T04:30:52.397Z,14.43
2023-05-05T04:31:54.310Z,14.35
2023-05-05T04:32:55.852Z,14.37
2023-05-05T04:33:57.453Z,14.53
2023-05-05T04:34:58.944Z,14.64
2023-05-05T04:36:00.850Z,14.53
2023-05-05T04:37:03.666Z,14.57
2023-05-05T04:38:05.634Z,14.56
2023-05-05T04:39:08.616Z,14.59
2023-05-05T04:40:10.670Z,14.60
2023-05-05T04:41:13.492Z,14.67
2023-05-05T04:42:17.248Z,14.60
2023-05-05T04:43:18.749Z,14.67
2023-05-05T04:44:20.974Z,14.69
2023-05-05T04:45:22.686Z,14.62
2023-05-05T04:46:24.985Z,14.65
2023-05-05T04:47:26.554Z,14.75
2023-05-05T04:48:28.250Z,14.77
2023-05-05T04:49:30.351Z,14.80
2023-05-05T04:50:32.624Z,14.82
2023-05-05T04:51:34.113Z,14.88
2023-05-05T04:52:35.782Z,14.90
2023-05-05T04:53:37.337Z,14.88
2023-05-05T04:54:39.223Z,14.91
2023-05-05T04:55:40.785Z,14.86
2023-05-05T04:56:42.310Z,14.97
2023-05-05T04:57:44.445Z,15.03
2023-05-05T04:58:46.133Z,14.94
2023-05-05T04:59:47.742Z,14.91
2023-05-05T05:00:49.245Z,14.93
2023-05-05T05:01:50.735Z,14.98
2023-05-05T05:02:53.100Z,14.99
2023-05-05T05:03:54.800Z,15.13
2023-05-05T05:04:56.352Z,15.08
2023-05-05T05:05:57.928Z,14.99
2023-05-05T05:06:59.487Z,15.00
2023-05-05T05:08:02.097Z,15.04
2023-05-05T05:09:03.781Z,15.10
2023-05-05T05:10:06.137Z,15.07
2023-05-05T05:11:08.883Z,15.13
2023-05-05T05:12:10.529Z,15.06
2023-05-05T05:13:12.858Z,14.90
2023-05-05T05:14:14.602Z,14.85
2023-05-05T05:15:16.195Z,14.86
2023-05-05T05:16:17.787Z,14.98
2023-05-05T05:17:20.500Z,14.81
2023-05-05T05:18:22.010Z,14.81
2023-05-05T05:19:24.670Z,14.86
2023-05-05T05:20:26.292Z,14.75
2023-05-05T05:21:27.845Z,14.77
2023-05-05T05:22:30.602Z,14.72
2023-05-05T05:23:33.024Z,14.74
2023-05-05T05:24:35.180Z,14.65
2023-05-05T05:25:36.707Z,14.70
2023-05-05T05:26:38.934Z,14.71
2023-05-05T05:27:41.731Z,14.83
2023-05-05T05:28:44.153Z,14.91
2023-05-05T05:29:45.724Z,15.02
2023-05-05T05:30:47.303Z,14.99
2023-05-05T05:31:50.188Z,15.06
2023-05-05T05:32:52.139Z,15.13
2023-05-05T05:33:53.778Z,15.27
2023-05-05T05:34:55.366Z,15.53
2023-05-05T05:35:56.931Z,15.54
2023-05-05T05:36:58.695Z,15.60
2023-05-05T05:38:00.630Z,15.69
2023-05-05T05:39:02.113Z,15.77
2023-05-05T05:40:05.313Z,16.24
2023-05-05T05:41:08.408Z,16.70
2023-05-05T05:42:11.627Z,17.40
2023-05-05T05:43:13.095Z,17.81
2023-05-05T05:44:14.635Z,17.93
2023-05-05T05:45:16.779Z,17.92
2023-05-05T05:46:19.399Z,17.73
2023-05-05T05:47:21.580Z,17.71
2023-05-05T05:48:28.358Z,17.60
2023-05-05T05:49:30.514Z,17.39
2023-05-05T05:50:32.029Z,17.43
2023-05-05T05:51:34.181Z,17.22
2023-05-05T05:52:36.491Z,17.14
2023-05-05T05:53:40.045Z,17.14
2023-05-05T05:54:42.973Z,17.09
2023-05-05T05:55:48.725Z,17.13
2023-05-05T05:56:50.685Z,17.34
2023-05-05T05:57:52.475Z,17.36
2023-05-05T05:58:54.817Z,17.41
2023-05-05T05:59:59.213Z,17.24
2023-05-05T06:01:02.212Z,17.35
2023-05-05T06:02:04.772Z,17.23
2023-05-05T06:03:07.431Z,17.21
2023-05-05T06:04:11.823Z,17.22
2023-05-05T06:05:13.876Z,17.21
2023-05-05T06:06:17.213Z,17.09
2023-05-05T06:07:19.428Z,17.03
2023-05-05T06:08:23.049Z,16.97
2023-05-05T06:09:27.737Z,17.14
2023-05-05T06:10:30.376Z,17.31
2023-05-05T06:11:37.040Z,17.23
2023-05-05T06:12:38.798Z,17.55
2023-05-05T06:13:40.363Z,17.51
2023-05-05T06:14:41.924Z,17.73
2023-05-05T06:15:43.499Z,17.59
2023-05-05T06:16:47.171Z,17.73
2023-05-05T06:17:54.014Z,17.70
2023-05-05T06:18:57.593Z,17.74
2023-05-05T06:19:59.453Z,17.99
2023-05-05T06:21:02.023Z,18.00
2023-05-05T06:22:04.671Z,17.90
2023-05-05T06:23:06.672Z,17.83
2023-05-05T06:24:11.947Z,18.05
2023-05-05T06:25:13.512Z,18.17
2023-05-05T06:26:14.978Z,18.03
2023-05-05T06:27:16.867Z,18.07
2023-05-05T06:28:18.675Z,18.24
2023-05-05T06:29:20.521Z,18.15
2023-05-05T06:30:22.037Z,18.02
2023-05-05T06:31:23.837Z,18.05
2023-05-05T06:32:25.510Z,18.09
2023-05-05T06:33:26.998Z,18.00
2023-05-05T06:34:28.560Z,17.95
2023-05-05T06:35:30.349Z,17.92
2023-05-05T06:36:32.353Z,17.94
2023-05-05T06:37:34.034Z,17.73
2023-05-05T06:38:36.397Z,17.91
2023-05-05T06:39:37.909Z,17.72
2023-05-05T06:40:39.692Z,17.89
2023-05-05T06:41:41.688Z,17.88
2023-05-05T06:42:43.473Z,18.04
2023-05-05T06:43:50.957Z,17.86
2023-05-05T06:44:52.598Z,17.91
2023-05-05T06:45:54.127Z,17.95
2023-05-05T06:46:55.719Z,18.07
2023-05-05T06:47:57.405Z,18.02
2023-05-05T06:48:58.937Z,18.05
2023-05-05T06:50:00.384Z,17.79
2023-05-05T06:51:04.539Z,17.50
2023-05-05T06:52:08.349Z,17.71
2023-05-05T06:53:09.824Z,17.81
2023-05-05T06:54:11.297Z,17.87
2023-05-05T06:55:12.781Z,17.88
2023-05-05T06:56:14.376Z,17.90
2023-05-05T06:57:15.946Z,17.85
2023-05-05T06:58:17.391Z,17.80
2023-05-05T06:59:18.906Z,17.81
2023-05-05T07:00:22.054Z,17.75
2023-05-05T07:01:23.634Z,17.80
2023-05-05T07:02:26.798Z,17.79
2023-05-05T07:03:28.506Z,17.66
2023-05-05T07:04:30.105Z,17.79
2023-05-05T07:05:31.797Z,17.74
2023-05-05T07:06:33.661Z,17.82
2023-05-05T07:07:35.983Z,18.01
2023-05-05T07:08:37.450Z,17.89
2023-05-05T07:09:39.256Z,18.11
2023-05-05T07:10:40.962Z,18.36
2023-05-05T07:11:42.448Z,18.14
2023-05-05T07:12:44.114Z,18.22
2023-05-05T07:13:45.594Z,18.36
2023-05-05T07:14:47.596Z,18.37
2023-05-05T07:15:49.616Z,18.27
2023-05-05T07:16:51.509Z,17.99
2023-05-05T07:17:53.279Z,17.91
2023-05-05T07:18:54.792Z,17.89
2023-05-05T07:19:56.407Z,17.62
2023-05-05T07:20:57.886Z,17.34
2023-05-05T07:21:59.378Z,17.29
2023-05-05T07:23:00.826Z,17.13
2023-05-05T07:24:05.911Z,17.05
2023-05-05T07:25:08.075Z,16.95
2023-05-05T07:26:09.706Z,16.76
2023-05-05T07:27:11.514Z,16.70
2023-05-05T07:28:13.213Z,16.63
2023-05-05T07:29:14.752Z,16.28
2023-05-05T07:30:18.484Z,16.27
2023-05-05T07:31:21.977Z,16.06
2023-05-05T07:32:23.852Z,15.97
2023-05-05T07:33:25.426Z,15.78
2023-05-05T07:34:27.561Z,15.64
2023-05-05T07:35:30.083Z,15.34
2023-05-05T07:36:32.164Z,15.04
2023-05-05T07:37:33.703Z,14.76
2023-05-05T07:38:35.209Z,14.52
2023-05-05T07:39:36.732Z,14.27
2023-05-05T07:40:38.205Z,14.08
2023-05-05T07:41:39.736Z,13.93
2023-05-05T07:42:41.607Z,13.86
2023-05-05T07:43:44.637Z,13.77
2023-05-05T07:44:46.316Z,13.66
2023-05-05T07:45:47.872Z,13.64
2023-05-05T07:46:49.720Z,13.63
2023-05-05T07:47:51.569Z,13.65
2023-05-05T07:48:53.073Z,13.70
2023-05-05T07:49:54.553Z,13.74
2023-05-05T07:50:56.115Z,13.77
2023-05-05T07:51:57.669Z,13.74
2023-05-05T07:53:10.572Z,13.68
2023-05-05T07:54:17.513Z,13.56
2023-05-05T07:55:19.255Z,13.55
2023-05-05T07:56:21.778Z,13.58
2023-05-05T07:57:23.459Z,13.51
2023-05-05T07:58:25.008Z,13.54
2023-05-05T07:59:26.630Z,13.55
2023-05-05T08:00:28.130Z,13.58
2023-05-05T08:01:29.822Z,13.58
2023-05-05T08:02:31.378Z,13.53
2023-05-05T08:03:33.153Z,13.48
2023-05-05T08:04:35.023Z,13.49
2023-05-05T08:05:37.699Z,13.51
2023-05-05T08:06:39.387Z,13.50
2023-05-05T08:07:41.539Z,13.53
2023-05-05T08:08:43.565Z,13.63
2023-05-05T08:09:45.299Z,13.61
2023-05-05T08:10:46.732Z,13.67
2023-05-05T08:11:48.416Z,13.65
2023-05-05T08:12:50.071Z,13.69
2023-05-05T08:13:52.070Z,13.72
2023-05-05T08:14:53.882Z,13.76
2023-05-05T08:15:56.089Z,13.84
2023-05-05T08:16:57.560Z,13.76
2023-05-05T08:17:59.341Z,13.82
2023-05-05T08:19:00.894Z,13.81
2023-05-05T08:20:02.417Z,13.87
2023-05-05T08:21:05.367Z,13.88
2023-05-05T08:22:06.871Z,13.98
2023-05-05T08:23:08.415Z,13.94
2023-05-05T08:24:09.938Z,13.99
2023-05-05T08:25:12.955Z,13.91
2023-05-05T08:26:14.594Z,13.93
2023-05-05T08:27:16.176Z,14.03
2023-05-05T08:28:17.736Z,14.08
2023-05-05T08:29:19.281Z,14.12
2023-05-05T08:30:21.401Z,14.02
2023-05-05T08:31:22.974Z,14.14
2023-05-05T08:32:24.505Z,14.11
2023-05-05T08:33:26.053Z,14.17
2023-05-05T08:34:27.506Z,14.21
2023-05-05T08:35:28.985Z,14.20
2023-05-05T08:36:30.980Z,14.21
2023-05-05T08:37:32.473Z,14.38
2023-05-05T08:38:33.980Z,14.49
2023-05-05T08:39:35.597Z,14.59
2023-05-05T08:40:39.207Z,14.77
2023-05-05T08:41:40.827Z,14.86
2023-05-05T08:42:42.919Z,14.97
2023-05-05T08:43:46.747Z,15.11
2023-05-05T08:44:48.307Z,15.19
2023-05-05T08:45:53.568Z,15.35
2023-05-05T08:46:55.689Z,15.47
2023-05-05T08:47:58.336Z,15.50
2023-05-05T08:49:01.531Z,15.62
2023-05-05T08:50:05.673Z,15.86
2023-05-05T08:51:09.507Z,15.89
2023-05-05T08:52:21.652Z,15.87
2023-05-05T08:53:35.958Z,16.22
2023-05-05T08:54:40.495Z,16.08
2023-05-05T08:55:50.451Z,16.04
2023-05-05T08:56:52.640Z,15.95
2023-05-05T08:57:57.235Z,15.95
2023-05-05T08:59:01.056Z,15.87
2023-05-05T09:00:04.144Z,15.89
2023-05-05T09:01:06.260Z,16.07
2023-05-05T09:02:09.671Z,16.00
2023-05-05T09:03:12.159Z,16.03
2023-05-05T09:04:14.050Z,16.07
2023-05-05T09:05:16.251Z,16.32
2023-05-05T09:06:20.868Z,16.60
2023-05-05T09:07:22.560Z,16.53
2023-05-05T09:08:24.656Z,16.78
2023-05-05T09:09:27.307Z,16.95
2023-05-05T09:10:29.336Z,17.13
2023-05-05T09:11:33.933Z,17.08
2023-05-05T09:12:36.095Z,17.05
2023-05-05T09:13:37.613Z,17.40
2023-05-05T09:14:39.132Z,17.47
2023-05-05T09:15:42.112Z,17.56
2023-05-05T09:16:44.220Z,17.73
2023-05-05T09:17:46.800Z,17.79
2023-05-05T09:18:48.436Z,18.01
2023-05-05T09:20:10.477Z,18.40
2023-05-05T09:21:25.954Z,18.42
2023-05-05T09:22:41.132Z,18.30
2023-05-05T09:24:09.424Z,17.78
2023-05-05T09:25:13.020Z,17.46
2023-05-05T09:26:14.769Z,17.27
2023-05-05T09:27:23.378Z,16.96
2023-05-05T09:28:24.847Z,17.16
2023-05-05T09:29:26.395Z,17.33
2023-05-05T09:30:27.988Z,17.60
2023-05-05T09:31:33.831Z,17.84
2023-05-05T09:32:52.313Z,18.16
2023-05-05T09:33:53.901Z,18.41
2023-05-05T09:35:00.464Z,18.99
2023-05-05T09:36:01.913Z,19.20
2023-05-05T09:37:03.754Z,19.17
2023-05-05T09:38:12.202Z,19.10
2023-05-05T09:39:16.363Z,19.29
2023-05-05T09:40:19.402Z,19.49
2023-05-05T09:41:37.527Z,19.46
2023-05-05T09:42:40.448Z,19.52
2023-05-05T09:43:52.383Z,19.74
2023-05-05T09:44:56.051Z,19.86
2023-05-05T09:46:08.250Z,19.83
2023-05-05T09:47:21.961Z,20.14
2023-05-05T09:48:30.589Z,20.61
2023-05-05T09:49:32.166Z,20.08
2023-05-05T09:50:44.117Z,19.81
2023-05-05T09:51:46.557Z,19.99
2023-05-05T09:52:59.087Z,20.22
2023-05-05T09:54:00.594Z,20.50
2023-05-05T09:55:02.206Z,20.71
2023-05-05T09:56:03.855Z,20.77
2023-05-05T09:57:05.329Z,21.19
2023-05-05T09:58:29.327Z,21.28
2023-05-05T09:59:30.934Z,21.51
2023-05-05T10:00:39.558Z,21.26
2023-05-05T10:01:43.360Z,21.26
2023-05-05T10:02:45.518Z,21.27
2023-05-05T10:03:53.690Z,21.16
2023-05-05T10:05:12.902Z,21.30
2023-05-05T10:06:14.561Z,21.71
2023-05-05T10:07:24.210Z,21.80
2023-05-05T10:08:34.198Z,21.86
2023-05-05T10:09:35.748Z,21.99
2023-05-05T10:10:39.927Z,22.11
2023-05-05T10:11:42.295Z,22.08
2023-05-05T10:12:46.576Z,21.87
2023-05-05T10:13:48.483Z,21.44
2023-05-05T10:14:52.579Z,21.37
2023-05-05T10:15:56.219Z,21.59
2023-05-05T10:17:00.869Z,21.65
2023-05-05T10:18:07.424Z,21.73
2023-05-05T10:19:14.214Z,21.38
2023-05-05T10:20:16.262Z,21.35
2023-05-05T10:21:21.388Z,21.34
2023-05-05T10:22:24.090Z,21.28
2023-05-05T10:23:35.248Z,20.99
2023-05-05T10:24:47.897Z,20.90
2023-05-05T10:26:12.503Z,20.38
2023-05-05T10:27:23.090Z,20.22
2023-05-05T10:28:56.127Z,19.96
2023-05-05T10:30:06.331Z,19.66
2023-05-05T10:31:24.252Z,19.58
2023-05-05T10:33:47.623Z,19.34
2023-05-05T10:34:53.269Z,19.28
2023-05-05T10:35:59.621Z,19.23
2023-05-05T10:37:01.410Z,19.17
2023-05-05T10:38:03.698Z,19.09
2023-05-05T10:39:10.658Z,19.00
2023-05-05T10:40:13.868Z,18.90
2023-05-05T10:41:16.020Z,18.88
2023-05-05T10:42:21.037Z,18.92
2023-05-05T10:43:24.412Z,18.93
2023-05-05T10:44:27.737Z,18.89
2023-05-05T10:45:29.731Z,18.93
2023-05-05T10:46:34.103Z,18.84
2023-05-05T10:47:37.254Z,18.77
2023-05-05T10:48:59.688Z,18.85
2023-05-05T10:50:11.455Z,18.93
2023-05-05T10:51:39.384Z,19.14
2023-05-05T10:53:19.032Z,19.20
2023-05-05T10:54:32.701Z,19.12
2023-05-05T10:55:40.877Z,19.13
2023-05-05T10:56:43.394Z,19.08
2023-05-05T10:57:46.152Z,19.06
2023-05-05T10:58:59.081Z,18.96
2023-05-05T11:00:01.869Z,19.07
2023-05-05T11:01:05.089Z,19.20
2023-05-05T11:02:26.728Z,19.41
2023-05-05T11:03:29.002Z,19.58
2023-05-05T11:04:30.841Z,19.86
2023-05-05T11:05:32.455Z,20.15
2023-05-05T11:06:33.934Z,20.40
2023-05-05T11:07:36.839Z,20.79
2023-05-05T11:08:48.158Z,21.10
2023-05-05T11:09:58.331Z,21.33
2023-05-05T11:11:00.915Z,21.44
2023-05-05T11:12:04.675Z,21.51
2023-05-05T11:13:09.136Z,21.48
2023-05-05T11:14:24.444Z,21.64
2023-05-05T11:15:33.476Z,21.81
2023-05-05T11:16:50.491Z,21.38
2023-05-05T11:17:57.028Z,21.68
2023-05-05T11:18:58.547Z,21.92
2023-05-05T11:20:00.030Z,22.07
2023-05-05T11:21:01.460Z,22.25
2023-05-05T11:22:03.047Z,22.58
2023-05-05T11:23:04.978Z,22.54
2023-05-05T11:24:30.089Z,22.25
2023-05-05T11:25:38.078Z,22.23
2023-05-05T11:26:58.014Z,22.56
2023-05-05T11:28:16.877Z,22.99
2023-05-05T11:29:18.426Z,23.18
2023-05-05T11:30:20.182Z,23.07
2023-05-05T11:31:22.117Z,23.03
2023-05-05T11:32:24.943Z,23.13
2023-05-05T11:33:34.979Z,23.28
2023-05-05T11:34:48.228Z,23.68
2023-05-05T11:36:09.400Z,23.68
2023-05-05T11:37:11.409Z,23.93
2023-05-05T11:38:15.453Z,23.66
2023-05-05T11:39:26.698Z,23.30
2023-05-05T11:40:33.355Z,23.64
2023-05-05T11:42:12.709Z,23.75
2023-05-05T11:43:18.955Z,23.93
2023-05-05T11:44:32.656Z,23.73
2023-05-05T11:45:34.567Z,23.46
2023-05-05T11:46:36.156Z,23.58
2023-05-05T11:47:38.162Z,23.39
2023-05-05T11:48:49.992Z,23.27
2023-05-05T11:49:51.513Z,23.32
2023-05-05T11:50:53.860Z,23.56
2023-05-05T11:52:06.003Z,23.40
2023-05-05T11:53:07.787Z,23.12
2023-05-05T11:54:09.290Z,23.33
2023-05-05T11:55:10.832Z,23.52
2023-05-05T11:56:18.740Z,23.51
2023-05-05T11:57:27.868Z,23.44
2023-05-05T11:58:29.399Z,23.51
2023-05-05T11:59:54.973Z,23.31
2023-05-05T12:00:56.547Z,23.41
2023-05-05T12:01:58.773Z,23.41
2023-05-05T12:03:00.474Z,23.27
2023-05-05T12:04:02.263Z,23.40
2023-05-05T12:05:04.462Z,23.53
2023-05-05T12:06:07.539Z,23.46
2023-05-05T12:07:15.419Z,23.75
2023-05-05T12:08:16.904Z,23.61
2023-05-05T12:09:20.243Z,23.45
2023-05-05T12:10:25.124Z,23.43
2023-05-05T12:11:26.731Z,23.30
2023-05-05T12:12:40.144Z,23.35
2023-05-05T12:13:41.905Z,23.38
2023-05-05T12:14:47.067Z,22.96
2023-05-05T12:15:48.536Z,22.88
2023-05-05T12:17:08.613Z,22.08
2023-05-05T12:18:19.806Z,22.25
2023-05-05T12:19:21.821Z,22.23
2023-05-05T12:20:32.230Z,22.15
2023-05-05T12:21:35.172Z,21.97
2023-05-05T12:22:36.840Z,21.82
2023-05-05T12:23:39.134Z,21.31
2023-05-05T12:24:40.664Z,21.43
2023-05-05T12:25:42.189Z,21.31
2023-05-05T12:26:44.001Z,21.22
2023-05-05T12:27:52.801Z,20.59
2023-05-05T12:28:55.534Z,20.55
2023-05-05T12:30:10.187Z,20.54
2023-05-05T12:31:11.895Z,20.63
2023-05-05T12:32:21.429Z,20.46
2023-05-05T12:33:23.219Z,20.63
2023-05-05T12:34:24.816Z,20.92
2023-05-05T12:35:27.032Z,21.02
2023-05-05T12:36:30.615Z,21.28
2023-05-05T12:37:32.504Z,21.52
2023-05-05T12:38:34.905Z,21.75
2023-05-05T12:39:36.602Z,22.04
2023-05-05T12:40:53.727Z,22.31
2023-05-05T12:42:03.116Z,22.71
2023-05-05T12:43:04.656Z,23.10
2023-05-05T12:44:06.600Z,23.44
2023-05-05T12:45:17.345Z,23.41
2023-05-05T12:46:18.907Z,23.57
2023-05-05T12:47:33.281Z,23.86
2023-05-05T12:48:37.781Z,23.98
2023-05-05T12:49:50.068Z,23.84
2023-05-05T12:50:52.245Z,23.92
2023-05-05T12:51:55.392Z,24.05
2023-05-05T12:52:57.031Z,24.07
2023-05-05T12:54:09.918Z,23.72
2023-05-05T12:55:11.739Z,24.19
2023-05-05T12:56:32.880Z,23.84
2023-05-05T12:57:34.405Z,23.74
2023-05-05T12:58:48.606Z,23.92
2023-05-05T12:59:51.668Z,24.05
2023-05-05T13:01:08.213Z,24.34
2023-05-05T13:02:09.793Z,24.50
2023-05-05T13:03:20.522Z,24.84
2023-05-05T13:04:24.010Z,24.68
2023-05-05T13:05:36.100Z,24.69
2023-05-05T13:06:42.827Z,24.58
2023-05-05T13:07:51.847Z,24.17
2023-05-05T13:08:53.424Z,24.14
2023-05-05T13:10:10.423Z,24.37
2023-05-05T13:11:12.230Z,24.39
2023-05-05T13:12:14.513Z,24.32
2023-05-05T13:13:16.061Z,24.50
2023-05-05T13:14:17.540Z,24.63
2023-05-05T13:15:19.022Z,23.77
2023-05-05T13:16:20.772Z,23.48
2023-05-05T13:17:22.350Z,23.68
2023-05-05T13:18:24.010Z,24.06
2023-05-05T13:19:25.742Z,23.83
2023-05-05T13:20:27.222Z,23.96
2023-05-05T13:21:28.747Z,24.58
2023-05-05T13:22:30.722Z,24.94
2023-05-05T13:23:32.248Z,25.18
2023-05-05T13:24:49.840Z,25.06
2023-05-05T13:25:53.540Z,25.29
2023-05-05T13:26:55.832Z,26.03
2023-05-05T13:27:57.298Z,26.47
2023-05-05T13:28:58.848Z,26.68
2023-05-05T13:30:00.387Z,26.95
2023-05-05T13:31:01.881Z,26.91
2023-05-05T13:32:03.610Z,26.68
2023-05-05T13:33:05.234Z,26.41
2023-05-05T13:34:06.802Z,26.40
2023-05-05T13:35:09.082Z,26.13
2023-05-05T13:36:10.756Z,25.62
2023-05-05T13:37:12.268Z,25.37
2023-05-05T13:38:13.701Z,25.32
2023-05-05T13:39:15.234Z,24.96
2023-05-05T13:40:16.778Z,24.90
2023-05-05T13:41:18.937Z,24.91
2023-05-05T13:42:20.487Z,24.69
2023-05-05T13:43:22.146Z,24.17
2023-05-05T13:44:24.182Z,24.09
2023-05-05T13:45:25.738Z,24.00
2023-05-05T13:46:27.451Z,23.66
2023-05-05T13:47:29.293Z,23.64
2023-05-05T13:48:30.775Z,23.68
2023-05-05T13:49:32.305Z,23.24
2023-05-05T13:50:33.955Z,23.27
2023-05-05T13:51:35.498Z,22.88
2023-05-05T13:52:37.388Z,22.66
2023-05-05T13:53:43.681Z,22.38
2023-05-05T13:54:45.298Z,22.51
2023-05-05T13:55:46.807Z,22.57